sensor_id;sensor_type;location;lat;lon;timestamp;temperature;humidity
12602;DHT22;30282;16.436;99.370;2023-04-01T00:01:37;24.80;99.90
12602;DHT22;30282;16.436;99.370;2023-04-01T00:04:06;24.90;99.90
12602;DHT22;30282;16.436;99.370;2023-04-01T00:06:41;25.00;99.90
12602;DHT22;30282;16.436;99.370;2023-04-01T00:09:11;25.10;99.90
12602;DHT22;30282;16.436;99.370;2023-04-01T00:11:41;25.20;99.90
12602;DHT22;30282;16.436;99.370;2023-04-01T00:14:11;25.30;99.90
12602;DHT22;30282;16.436;99.370;2023-04-01T00:16:40;25.40;99.90
12602;DHT22;30282;16.436;99.370;2023-04-01T00:19:09;25.40;99.90
12602;DHT22;30282;16.436;99.370;2023-04-01T00:21:38;25.40;99.90
12602;DHT22;30282;16.436;99.370;2023-04-01T00:24:07;25.40;99.90
12602;DHT22;30282;16.436;99.370;2023-04-01T00:26:38;25.50;99.90
12602;DHT22;30282;16.436;99.370;2023-04-01T00:29:09;25.50;99.90
12602;DHT22;30282;16.436;99.370;2023-04-01T00:31:38;25.50;99.90
12602;DHT22;30282;16.436;99.370;2023-04-01T00:34:07;25.60;99.90
12602;DHT22;30282;16.436;99.370;2023-04-01T00:36:36;25.70;99.90
12602;DHT22;30282;16.436;99.370;2023-04-01T00:39:05;25.90;99.90
12602;DHT22;30282;16.436;99.370;2023-04-01T00:41:34;25.90;99.90
12602;DHT22;30282;16.436;99.370;2023-04-01T00:44:16;26.00;99.90
12602;DHT22;30282;16.436;99.370;2023-04-01T00:46:46;26.00;99.90
12602;DHT22;30282;16.436;99.370;2023-04-01T00:49:17;26.00;99.90
12602;DHT22;30282;16.436;99.370;2023-04-01T00:51:50;26.10;99.90
12602;DHT22;30282;16.436;99.370;2023-04-01T00:54:21;26.20;99.90
12602;DHT22;30282;16.436;99.370;2023-04-01T00:56:53;26.20;99.90
12602;DHT22;30282;16.436;99.370;2023-04-01T00:59:27;26.30;99.90
12602;DHT22;30282;16.436;99.370;2023-04-01T01:01:57;26.40;99.90
12602;DHT22;30282;16.436;99.370;2023-04-01T01:04:27;26.50;99.90
12602;DHT22;30282;16.436;99.370;2023-04-01T01:07:03;26.50;99.90
12602;DHT22;30282;16.436;99.370;2023-04-01T01:09:42;26.60;99.90
12602;DHT22;30282;16.436;99.370;2023-04-01T01:12:15;26.70;99.90
12602;DHT22;30282;16.436;99.370;2023-04-01T01:14:55;26.70;99.90
12602;DHT22;30282;16.436;99.370;2023-04-01T01:17:36;26.80;99.90
12602;DHT22;30282;16.436;99.370;2023-04-01T01:20:39;26.80;99.90
12602;DHT22;30282;16.436;99.370;2023-04-01T01:23:31;26.90;99.90
12602;DHT22;30282;16.436;99.370;2023-04-01T01:26:17;27.00;99.90
12602;DHT22;30282;16.436;99.370;2023-04-01T01:29:01;27.10;99.90
12602;DHT22;30282;16.436;99.370;2023-04-01T01:31:37;27.10;99.90
12602;DHT22;30282;16.436;99.370;2023-04-01T01:34:15;27.20;99.90
12602;DHT22;30282;16.436;99.370;2023-04-01T01:36:53;27.20;99.90
12602;DHT22;30282;16.436;99.370;2023-04-01T01:39:26;27.30;99.90
12602;DHT22;30282;16.436;99.370;2023-04-01T01:41:57;27.40;99.90
12602;DHT22;30282;16.436;99.370;2023-04-01T01:44:28;27.40;99.90
12602;DHT22;30282;16.436;99.370;2023-04-01T01:46:59;27.50;99.90
12602;DHT22;30282;16.436;99.370;2023-04-01T01:49:29;27.40;99.90
12602;DHT22;30282;16.436;99.370;2023-04-01T01:52:01;27.60;99.90
12602;DHT22;30282;16.436;99.370;2023-04-01T01:54:30;27.70;99.90
12602;DHT22;30282;16.436;99.370;2023-04-01T01:57:04;27.70;99.90
12602;DHT22;30282;16.436;99.370;2023-04-01T01:59:36;27.80;99.90
12602;DHT22;30282;16.436;99.370;2023-04-01T02:02:07;27.90;99.90
12602;DHT22;30282;16.436;99.370;2023-04-01T02:04:39;28.10;99.90
12602;DHT22;30282;16.436;99.370;2023-04-01T02:07:14;28.20;99.90
12602;DHT22;30282;16.436;99.370;2023-04-01T02:09:44;28.30;99.90
12602;DHT22;30282;16.436;99.370;2023-04-01T02:12:14;28.40;99.90
12602;DHT22;30282;16.436;99.370;2023-04-01T02:14:47;28.50;99.90
12602;DHT22;30282;16.436;99.370;2023-04-01T02:17:20;28.60;99.90
12602;DHT22;30282;16.436;99.370;2023-04-01T02:19:53;28.70;99.90
12602;DHT22;30282;16.436;99.370;2023-04-01T02:22:27;28.70;99.90
12602;DHT22;30282;16.436;99.370;2023-04-01T02:24:59;28.70;99.90
12602;DHT22;30282;16.436;99.370;2023-04-01T02:27:30;28.80;99.90
12602;DHT22;30282;16.436;99.370;2023-04-01T02:30:03;28.90;99.90
12602;DHT22;30282;16.436;99.370;2023-04-01T02:32:34;29.00;99.90
12602;DHT22;30282;16.436;99.370;2023-04-01T02:35:05;29.00;99.90
12602;DHT22;30282;16.436;99.370;2023-04-01T02:37:37;29.10;99.90
12602;DHT22;30282;16.436;99.370;2023-04-01T02:40:11;29.20;99.90
12602;DHT22;30282;16.436;99.370;2023-04-01T02:42:40;29.30;99.90
12602;DHT22;30282;16.436;99.370;2023-04-01T02:45:11;29.40;99.90
12602;DHT22;30282;16.436;99.370;2023-04-01T02:47:41;29.40;99.90
12602;DHT22;30282;16.436;99.370;2023-04-01T02:50:10;29.50;99.90
12602;DHT22;30282;16.436;99.370;2023-04-01T02:52:41;29.60;99.90
12602;DHT22;30282;16.436;99.370;2023-04-01T02:55:10;29.80;99.90
12602;DHT22;30282;16.436;99.370;2023-04-01T02:57:39;29.90;99.90
12602;DHT22;30282;16.436;99.370;2023-04-01T03:00:09;30.00;99.90
12602;DHT22;30282;16.436;99.370;2023-04-01T03:02:39;30.00;99.90
12602;DHT22;30282;16.436;99.370;2023-04-01T03:05:08;30.00;99.90
12602;DHT22;30282;16.436;99.370;2023-04-01T03:07:38;29.90;99.90
12602;DHT22;30282;16.436;99.370;2023-04-01T03:10:12;30.10;99.90
12602;DHT22;30282;16.436;99.370;2023-04-01T03:12:44;30.30;99.90
12602;DHT22;30282;16.436;99.370;2023-04-01T03:15:14;30.30;99.90
12602;DHT22;30282;16.436;99.370;2023-04-01T03:17:43;30.40;99.90
12602;DHT22;30282;16.436;99.370;2023-04-01T03:20:13;30.50;99.90
12602;DHT22;30282;16.436;99.370;2023-04-01T03:22:46;30.60;99.90
12602;DHT22;30282;16.436;99.370;2023-04-01T03:25:17;30.60;99.90
12602;DHT22;30282;16.436;99.370;2023-04-01T03:27:46;30.70;99.90
12602;DHT22;30282;16.436;99.370;2023-04-01T03:30:16;30.90;99.90
12602;DHT22;30282;16.436;99.370;2023-04-01T03:32:45;31.00;99.90
12602;DHT22;30282;16.436;99.370;2023-04-01T03:35:14;31.10;99.90
12602;DHT22;30282;16.436;99.370;2023-04-01T03:37:43;31.20;99.90
12602;DHT22;30282;16.436;99.370;2023-04-01T03:40:12;31.20;99.90
12602;DHT22;30282;16.436;99.370;2023-04-01T03:42:43;31.40;99.90
12602;DHT22;30282;16.436;99.370;2023-04-01T03:45:12;31.50;99.90
12602;DHT22;30282;16.436;99.370;2023-04-01T03:47:42;31.60;99.90
12602;DHT22;30282;16.436;99.370;2023-04-01T03:50:11;31.70;99.90
12602;DHT22;30282;16.436;99.370;2023-04-01T03:52:40;31.80;99.90
12602;DHT22;30282;16.436;99.370;2023-04-01T03:55:17;31.80;99.90
12602;DHT22;30282;16.436;99.370;2023-04-01T03:57:48;32.00;99.90
12602;DHT22;30282;16.436;99.370;2023-04-01T04:00:17;32.10;99.90
12602;DHT22;30282;16.436;99.370;2023-04-01T04:02:47;32.20;99.90
12602;DHT22;30282;16.436;99.370;2023-04-01T04:05:16;32.30;99.90
12602;DHT22;30282;16.436;99.370;2023-04-01T04:07:45;32.40;99.90
12602;DHT22;30282;16.436;99.370;2023-04-01T04:10:14;32.50;99.90
12602;DHT22;30282;16.436;99.370;2023-04-01T04:12:43;32.60;99.90
12602;DHT22;30282;16.436;99.370;2023-04-01T04:15:14;32.70;99.90
12602;DHT22;30282;16.436;99.370;2023-04-01T04:17:44;32.60;99.90
12602;DHT22;30282;16.436;99.370;2023-04-01T04:20:14;32.80;99.90
12602;DHT22;30282;16.436;99.370;2023-04-01T04:22:43;32.80;99.90
12602;DHT22;30282;16.436;99.370;2023-04-01T04:25:12;32.90;99.90
12602;DHT22;30282;16.436;99.370;2023-04-01T04:27:41;33.10;99.90
12602;DHT22;30282;16.436;99.370;2023-04-01T04:30:11;33.10;99.90
12602;DHT22;30282;16.436;99.370;2023-04-01T04:32:42;33.10;99.90
12602;DHT22;30282;16.436;99.370;2023-04-01T04:35:11;33.20;99.90
12602;DHT22;30282;16.436;99.370;2023-04-01T04:37:40;33.30;99.90
12602;DHT22;30282;16.436;99.370;2023-04-01T04:40:09;33.40;99.90
12602;DHT22;30282;16.436;99.370;2023-04-01T04:42:38;33.50;99.90
12602;DHT22;30282;16.436;99.370;2023-04-01T04:45:08;33.60;99.90
12602;DHT22;30282;16.436;99.370;2023-04-01T04:47:40;33.70;99.90
12602;DHT22;30282;16.436;99.370;2023-04-01T04:50:09;33.90;99.90
12602;DHT22;30282;16.436;99.370;2023-04-01T04:52:38;33.90;99.90
12602;DHT22;30282;16.436;99.370;2023-04-01T04:55:08;33.90;99.90
12602;DHT22;30282;16.436;99.370;2023-04-01T04:57:37;33.90;99.90
12602;DHT22;30282;16.436;99.370;2023-04-01T05:00:07;33.80;99.90
12602;DHT22;30282;16.436;99.370;2023-04-01T05:02:37;33.90;99.90
12602;DHT22;30282;16.436;99.370;2023-04-01T05:05:08;34.00;99.90
12602;DHT22;30282;16.436;99.370;2023-04-01T05:07:40;34.00;99.90
12602;DHT22;30282;16.436;99.370;2023-04-01T05:10:09;34.20;99.90
12602;DHT22;30282;16.436;99.370;2023-04-01T05:12:38;34.10;99.90
12602;DHT22;30282;16.436;99.370;2023-04-01T05:15:09;34.00;99.90
12602;DHT22;30282;16.436;99.370;2023-04-01T05:17:38;34.20;99.90
12602;DHT22;30282;16.436;99.370;2023-04-01T05:20:11;34.20;99.90
12602;DHT22;30282;16.436;99.370;2023-04-01T05:22:40;34.30;99.90
12602;DHT22;30282;16.436;99.370;2023-04-01T05:25:10;34.40;99.90
12602;DHT22;30282;16.436;99.370;2023-04-01T05:27:38;34.40;99.90
12602;DHT22;30282;16.436;99.370;2023-04-01T05:30:08;34.40;99.90
12602;DHT22;30282;16.436;99.370;2023-04-01T05:32:37;34.50;99.90
12602;DHT22;30282;16.436;99.370;2023-04-01T05:35:08;34.40;99.90
12602;DHT22;30282;16.436;99.370;2023-04-01T05:37:38;34.60;99.90
12602;DHT22;30282;16.436;99.370;2023-04-01T05:40:08;34.70;99.90
12602;DHT22;30282;16.436;99.370;2023-04-01T05:42:37;34.80;99.90
12602;DHT22;30282;16.436;99.370;2023-04-01T05:45:07;34.80;99.90
12602;DHT22;30282;16.436;99.370;2023-04-01T05:47:36;34.90;99.90
12602;DHT22;30282;16.436;99.370;2023-04-01T05:50:07;35.10;99.90
12602;DHT22;30282;16.436;99.370;2023-04-01T05:52:37;35.20;99.90
12602;DHT22;30282;16.436;99.370;2023-04-01T05:55:07;35.30;99.90
12602;DHT22;30282;16.436;99.370;2023-04-01T05:57:36;35.50;99.90
12602;DHT22;30282;16.436;99.370;2023-04-01T06:00:06;35.50;99.90
12602;DHT22;30282;16.436;99.370;2023-04-01T06:02:35;35.60;99.90
12602;DHT22;30282;16.436;99.370;2023-04-01T06:05:15;35.60;99.90
12602;DHT22;30282;16.436;99.370;2023-04-01T06:07:57;35.50;99.90
12602;DHT22;30282;16.436;99.370;2023-04-01T06:10:37;35.50;99.90
12602;DHT22;30282;16.436;99.370;2023-04-01T06:13:14;35.40;99.90
12602;DHT22;30282;16.436;99.370;2023-04-01T06:15:50;35.30;99.90
12602;DHT22;30282;16.436;99.370;2023-04-01T06:21:46;35.40;99.90
12602;DHT22;30282;16.436;99.370;2023-04-01T06:24:40;35.50;99.90
12602;DHT22;30282;16.436;99.370;2023-04-01T06:27:21;35.60;99.90
12602;DHT22;30282;16.436;99.370;2023-04-01T06:30:02;35.70;99.90
12602;DHT22;30282;16.436;99.370;2023-04-01T06:32:57;35.80;99.90
12602;DHT22;30282;16.436;99.370;2023-04-01T06:35:40;35.90;99.90
12602;DHT22;30282;16.436;99.370;2023-04-01T06:38:49;35.80;99.90
12602;DHT22;30282;16.436;99.370;2023-04-01T06:41:38;35.80;99.90
12602;DHT22;30282;16.436;99.370;2023-04-01T06:44:16;35.90;99.90
12602;DHT22;30282;16.436;99.370;2023-04-01T06:46:50;35.90;99.90
12602;DHT22;30282;16.436;99.370;2023-04-01T06:49:39;35.90;99.90
12602;DHT22;30282;16.436;99.370;2023-04-01T06:52:18;36.00;99.90
12602;DHT22;30282;16.436;99.370;2023-04-01T06:54:55;35.90;99.90
12602;DHT22;30282;16.436;99.370;2023-04-01T06:57:32;35.80;99.90
12602;DHT22;30282;16.436;99.370;2023-04-01T07:00:05;35.80;99.90
12602;DHT22;30282;16.436;99.370;2023-04-01T07:02:43;36.00;99.90
12602;DHT22;30282;16.436;99.370;2023-04-01T07:05:14;36.00;99.90
12602;DHT22;30282;16.436;99.370;2023-04-01T07:07:46;36.00;99.90
12602;DHT22;30282;16.436;99.370;2023-04-01T07:10:22;36.00;99.90
12602;DHT22;30282;16.436;99.370;2023-04-01T07:12:58;35.80;99.90
12602;DHT22;30282;16.436;99.370;2023-04-01T07:15:33;35.90;99.90
12602;DHT22;30282;16.436;99.370;2023-04-01T07:18:10;35.90;99.90
12602;DHT22;30282;16.436;99.370;2023-04-01T07:20:41;35.90;99.90
12602;DHT22;30282;16.436;99.370;2023-04-01T07:23:19;36.00;99.90
12602;DHT22;30282;16.436;99.370;2023-04-01T07:25:56;36.00;99.90
12602;DHT22;30282;16.436;99.370;2023-04-01T07:28:29;36.10;99.90
12602;DHT22;30282;16.436;99.370;2023-04-01T07:31:10;36.10;99.90
12602;DHT22;30282;16.436;99.370;2023-04-01T07:33:46;36.20;99.90
12602;DHT22;30282;16.436;99.370;2023-04-01T07:36:20;36.20;99.90
12602;DHT22;30282;16.436;99.370;2023-04-01T07:38:57;36.20;99.90
12602;DHT22;30282;16.436;99.370;2023-04-01T07:41:37;36.20;99.90
12602;DHT22;30282;16.436;99.370;2023-04-01T07:44:18;36.30;99.90
12602;DHT22;30282;16.436;99.370;2023-04-01T07:46:57;36.20;99.90
12602;DHT22;30282;16.436;99.370;2023-04-01T07:49:37;36.20;99.90
12602;DHT22;30282;16.436;99.370;2023-04-01T07:52:15;36.30;99.90
12602;DHT22;30282;16.436;99.370;2023-04-01T07:54:51;36.40;99.90
12602;DHT22;30282;16.436;99.370;2023-04-01T07:57:30;36.30;99.90
12602;DHT22;30282;16.436;99.370;2023-04-01T08:00:15;36.30;99.90
12602;DHT22;30282;16.436;99.370;2023-04-01T08:02:55;36.30;99.90
12602;DHT22;30282;16.436;99.370;2023-04-01T08:05:29;36.30;99.90
12602;DHT22;30282;16.436;99.370;2023-04-01T08:08:05;36.30;99.90
12602;DHT22;30282;16.436;99.370;2023-04-01T08:10:41;36.30;99.90
12602;DHT22;30282;16.436;99.370;2023-04-01T08:13:28;36.30;99.90
12602;DHT22;30282;16.436;99.370;2023-04-01T08:16:09;36.20;99.90
12602;DHT22;30282;16.436;99.370;2023-04-01T08:18:47;36.20;99.90
12602;DHT22;30282;16.436;99.370;2023-04-01T08:21:21;36.20;99.90
12602;DHT22;30282;16.436;99.370;2023-04-01T08:23:53;36.30;99.90
12602;DHT22;30282;16.436;99.370;2023-04-01T08:26:30;36.30;99.90
12602;DHT22;30282;16.436;99.370;2023-04-01T08:29:05;36.20;99.90
12602;DHT22;30282;16.436;99.370;2023-04-01T08:31:39;36.20;99.90
12602;DHT22;30282;16.436;99.370;2023-04-01T08:34:15;36.20;99.90
12602;DHT22;30282;16.436;99.370;2023-04-01T08:36:48;36.20;99.90
12602;DHT22;30282;16.436;99.370;2023-04-01T08:39:23;36.20;99.90
12602;DHT22;30282;16.436;99.370;2023-04-01T08:42:31;36.10;99.90
12602;DHT22;30282;16.436;99.370;2023-04-01T08:48:25;36.10;99.90
12602;DHT22;30282;16.436;99.370;2023-04-01T08:51:15;36.20;99.90
12602;DHT22;30282;16.436;99.370;2023-04-01T08:54:08;36.20;99.90
12602;DHT22;30282;16.436;99.370;2023-04-01T08:56:50;36.10;99.90
12602;DHT22;30282;16.436;99.370;2023-04-01T08:59:35;36.10;99.90
12602;DHT22;30282;16.436;99.370;2023-04-01T09:02:37;36.10;99.90
12602;DHT22;30282;16.436;99.370;2023-04-01T09:05:35;36.10;99.90
12602;DHT22;30282;16.436;99.370;2023-04-01T09:08:16;36.10;99.90
12602;DHT22;30282;16.436;99.370;2023-04-01T09:10:59;36.10;99.90
12602;DHT22;30282;16.436;99.370;2023-04-01T09:14:04;36.00;99.90
12602;DHT22;30282;16.436;99.370;2023-04-01T09:16:53;36.10;99.90
12602;DHT22;30282;16.436;99.370;2023-04-01T09:19:33;36.00;99.90
12602;DHT22;30282;16.436;99.370;2023-04-01T09:22:25;36.00;99.90
12602;DHT22;30282;16.436;99.370;2023-04-01T09:25:21;35.90;99.90
12602;DHT22;30282;16.436;99.370;2023-04-01T09:27:57;35.90;99.90
12602;DHT22;30282;16.436;99.370;2023-04-01T09:36:52;36.00;99.90
12602;DHT22;30282;16.436;99.370;2023-04-01T09:39:36;35.90;99.90
12602;DHT22;30282;16.436;99.370;2023-04-01T09:42:52;35.90;99.90
12602;DHT22;30282;16.436;99.370;2023-04-01T09:45:40;35.90;99.90
12602;DHT22;30282;16.436;99.370;2023-04-01T09:48:31;35.90;99.90
12602;DHT22;30282;16.436;99.370;2023-04-01T09:51:11;35.90;99.90
12602;DHT22;30282;16.436;99.370;2023-04-01T09:53:57;35.90;99.90
12602;DHT22;30282;16.436;99.370;2023-04-01T10:06:20;35.70;99.90
12602;DHT22;30282;16.436;99.370;2023-04-01T10:09:22;35.70;99.90
12602;DHT22;30282;16.436;99.370;2023-04-01T10:12:23;35.60;99.90
12602;DHT22;30282;16.436;99.370;2023-04-01T10:15:34;35.60;99.90
12602;DHT22;30282;16.436;99.370;2023-04-01T10:24:44;35.40;99.90
12602;DHT22;30282;16.436;99.370;2023-04-01T10:30:32;35.30;99.90
12602;DHT22;30282;16.436;99.370;2023-04-01T10:36:53;35.20;99.90
12602;DHT22;30282;16.436;99.370;2023-04-01T10:39:37;35.10;99.90
12602;DHT22;30282;16.436;99.370;2023-04-01T10:42:33;35.10;99.90
12602;DHT22;30282;16.436;99.370;2023-04-01T10:45:42;35.00;99.90
12602;DHT22;30282;16.436;99.370;2023-04-01T10:48:30;35.00;99.90
12602;DHT22;30282;16.436;99.370;2023-04-01T10:51:18;35.00;99.90
12602;DHT22;30282;16.436;99.370;2023-04-01T10:54:32;34.90;99.90
12602;DHT22;30282;16.436;99.370;2023-04-01T11:00:25;34.80;99.90
12602;DHT22;30282;16.436;99.370;2023-04-01T11:09:44;34.60;99.90
12602;DHT22;30282;16.436;99.370;2023-04-01T11:12:58;34.50;99.90
12602;DHT22;30282;16.436;99.370;2023-04-01T11:16:12;34.40;99.90
12602;DHT22;30282;16.436;99.370;2023-04-01T11:25:09;34.20;99.90
12602;DHT22;30282;16.436;99.370;2023-04-01T11:31:04;34.10;99.90
12602;DHT22;30282;16.436;99.370;2023-04-01T11:33:46;34.00;99.90
12602;DHT22;30282;16.436;99.370;2023-04-01T11:36:25;33.90;99.90
12602;DHT22;30282;16.436;99.370;2023-04-01T11:39:14;33.90;99.90
12602;DHT22;30282;16.436;99.370;2023-04-01T11:41:55;33.80;99.90
12602;DHT22;30282;16.436;99.370;2023-04-01T11:44:28;33.80;99.90
12602;DHT22;30282;16.436;99.370;2023-04-01T11:47:15;33.80;99.90
12602;DHT22;30282;16.436;99.370;2023-04-01T11:49:57;33.70;99.90
12602;DHT22;30282;16.436;99.370;2023-04-01T11:52:51;33.70;99.90
12602;DHT22;30282;16.436;99.370;2023-04-01T11:55:33;33.70;99.90
12602;DHT22;30282;16.436;99.370;2023-04-01T11:58:32;33.60;99.90
12602;DHT22;30282;16.436;99.370;2023-04-01T12:01:30;33.50;99.90
12602;DHT22;30282;16.436;99.370;2023-04-01T12:07:19;33.40;99.90
12602;DHT22;30282;16.436;99.370;2023-04-01T12:09:56;33.20;99.90
12602;DHT22;30282;16.436;99.370;2023-04-01T12:12:32;33.10;99.90
12602;DHT22;30282;16.436;99.370;2023-04-01T12:15:17;33.00;99.90
12602;DHT22;30282;16.436;99.370;2023-04-01T12:17:53;33.00;99.90
12602;DHT22;30282;16.436;99.370;2023-04-01T12:20:36;33.00;99.90
12602;DHT22;30282;16.436;99.370;2023-04-01T12:23:36;33.00;99.90
12602;DHT22;30282;16.436;99.370;2023-04-01T12:26:35;33.00;99.90
12602;DHT22;30282;16.436;99.370;2023-04-01T12:29:48;33.00;99.90
12602;DHT22;30282;16.436;99.370;2023-04-01T12:32:26;32.90;99.90
12602;DHT22;30282;16.436;99.370;2023-04-01T12:35:19;32.80;99.90
12602;DHT22;30282;16.436;99.370;2023-04-01T12:37:57;32.80;99.90
12602;DHT22;30282;16.436;99.370;2023-04-01T12:40:50;32.80;99.90
12602;DHT22;30282;16.436;99.370;2023-04-01T12:43:34;32.90;99.90
12602;DHT22;30282;16.436;99.370;2023-04-01T12:46:19;32.90;99.90
12602;DHT22;30282;16.436;99.370;2023-04-01T12:49:19;32.90;99.90
12602;DHT22;30282;16.436;99.370;2023-04-01T12:52:03;32.80;99.90
12602;DHT22;30282;16.436;99.370;2023-04-01T13:01:42;32.70;99.90
12602;DHT22;30282;16.436;99.370;2023-04-01T13:07:48;32.70;99.90
12602;DHT22;30282;16.436;99.370;2023-04-01T13:10:32;32.80;99.90
12602;DHT22;30282;16.436;99.370;2023-04-01T13:13:23;32.80;99.90
12602;DHT22;30282;16.436;99.370;2023-04-01T13:16:00;32.80;99.90
12602;DHT22;30282;16.436;99.370;2023-04-01T13:18:39;32.90;99.90
12602;DHT22;30282;16.436;99.370;2023-04-01T13:21:19;32.80;99.90
12602;DHT22;30282;16.436;99.370;2023-04-01T13:23:56;32.90;99.90
12602;DHT22;30282;16.436;99.370;2023-04-01T13:26:36;32.90;99.90
12602;DHT22;30282;16.436;99.370;2023-04-01T13:29:13;33.00;99.90
12602;DHT22;30282;16.436;99.370;2023-04-01T13:34:54;33.00;99.90
12602;DHT22;30282;16.436;99.370;2023-04-01T13:38:03;33.10;99.90
12602;DHT22;30282;16.436;99.370;2023-04-01T13:40:40;33.00;99.90
12602;DHT22;30282;16.436;99.370;2023-04-01T13:43:16;32.90;99.90
12602;DHT22;30282;16.436;99.370;2023-04-01T13:46:09;32.70;99.90
12602;DHT22;30282;16.436;99.370;2023-04-01T13:49:09;32.70;99.90
12602;DHT22;30282;16.436;99.370;2023-04-01T13:58:04;32.60;99.90
12602;DHT22;30282;16.436;99.370;2023-04-01T14:00:46;32.50;99.90
12602;DHT22;30282;16.436;99.370;2023-04-01T14:03:32;32.50;99.90
12602;DHT22;30282;16.436;99.370;2023-04-01T14:06:21;32.50;99.90
12602;DHT22;30282;16.436;99.370;2023-04-01T14:09:25;32.50;99.90
12602;DHT22;30282;16.436;99.370;2023-04-01T14:12:05;32.50;99.90
12602;DHT22;30282;16.436;99.370;2023-04-01T14:14:47;32.50;99.90
12602;DHT22;30282;16.436;99.370;2023-04-01T14:17:36;32.40;99.90
12602;DHT22;30282;16.436;99.370;2023-04-01T14:20:39;32.10;99.90
12602;DHT22;30282;16.436;99.370;2023-04-01T14:26:26;32.00;99.90
12602;DHT22;30282;16.436;99.370;2023-04-01T14:29:11;31.90;99.90
12602;DHT22;30282;16.436;99.370;2023-04-01T14:31:55;31.80;99.90
12602;DHT22;30282;16.436;99.370;2023-04-01T14:34:39;31.70;99.90
12602;DHT22;30282;16.436;99.370;2023-04-01T14:37:30;31.70;99.90
12602;DHT22;30282;16.436;99.370;2023-04-01T14:40:26;31.70;99.90
12602;DHT22;30282;16.436;99.370;2023-04-01T14:45:55;31.50;99.90
12602;DHT22;30282;16.436;99.370;2023-04-01T14:48:32;31.40;99.90
12602;DHT22;30282;16.436;99.370;2023-04-01T14:51:09;31.30;99.90
12602;DHT22;30282;16.436;99.370;2023-04-01T14:53:50;31.40;99.90
12602;DHT22;30282;16.436;99.370;2023-04-01T14:56:41;31.50;99.90
12602;DHT22;30282;16.436;99.370;2023-04-01T14:59:14;31.40;99.90
12602;DHT22;30282;16.436;99.370;2023-04-01T15:01:50;31.40;99.90
12602;DHT22;30282;16.436;99.370;2023-04-01T15:04:41;31.40;99.90
12602;DHT22;30282;16.436;99.370;2023-04-01T15:10:39;31.20;99.90
12602;DHT22;30282;16.436;99.370;2023-04-01T15:13:15;31.10;99.90
12602;DHT22;30282;16.436;99.370;2023-04-01T15:15:58;31.10;99.90
12602;DHT22;30282;16.436;99.370;2023-04-01T15:18:39;31.00;99.90
12602;DHT22;30282;16.436;99.370;2023-04-01T15:21:32;31.00;99.90
12602;DHT22;30282;16.436;99.370;2023-04-01T15:24:16;30.90;99.90
12602;DHT22;30282;16.436;99.370;2023-04-01T15:27:02;31.00;99.90
12602;DHT22;30282;16.436;99.370;2023-04-01T15:29:55;31.10;99.90
12602;DHT22;30282;16.436;99.370;2023-04-01T15:32:43;31.30;99.90
12602;DHT22;30282;16.436;99.370;2023-04-01T15:35:21;31.30;99.90
12602;DHT22;30282;16.436;99.370;2023-04-01T15:37:56;31.20;99.90
12602;DHT22;30282;16.436;99.370;2023-04-01T15:40:30;31.00;99.90
12602;DHT22;30282;16.436;99.370;2023-04-01T15:43:11;30.90;99.90
12602;DHT22;30282;16.436;99.370;2023-04-01T15:45:51;30.80;99.90
12602;DHT22;30282;16.436;99.370;2023-04-01T15:48:35;30.80;99.90
12602;DHT22;30282;16.436;99.370;2023-04-01T15:51:28;30.80;99.90
12602;DHT22;30282;16.436;99.370;2023-04-01T15:54:26;30.70;99.90
12602;DHT22;30282;16.436;99.370;2023-04-01T15:57:20;30.80;99.90
12602;DHT22;30282;16.436;99.370;2023-04-01T16:00:09;30.80;99.90
12602;DHT22;30282;16.436;99.370;2023-04-01T16:02:44;30.80;99.90
12602;DHT22;30282;16.436;99.370;2023-04-01T16:05:35;30.80;99.90
12602;DHT22;30282;16.436;99.370;2023-04-01T16:08:36;30.80;99.90
12602;DHT22;30282;16.436;99.370;2023-04-01T16:11:19;30.90;99.90
12602;DHT22;30282;16.436;99.370;2023-04-01T16:14:11;30.90;99.90
12602;DHT22;30282;16.436;99.370;2023-04-01T16:16:55;30.90;99.90
12602;DHT22;30282;16.436;99.370;2023-04-01T16:19:37;30.90;99.90
12602;DHT22;30282;16.436;99.370;2023-04-01T16:22:11;30.80;99.90
12602;DHT22;30282;16.436;99.370;2023-04-01T16:24:45;30.70;99.90
12602;DHT22;30282;16.436;99.370;2023-04-01T16:27:18;30.70;99.90
12602;DHT22;30282;16.436;99.370;2023-04-01T16:29:57;30.70;99.90
12602;DHT22;30282;16.436;99.370;2023-04-01T16:32:41;30.70;99.90
12602;DHT22;30282;16.436;99.370;2023-04-01T16:35:26;30.70;99.90
12602;DHT22;30282;16.436;99.370;2023-04-01T16:38:07;30.50;99.90
12602;DHT22;30282;16.436;99.370;2023-04-01T16:40:43;30.20;99.90
12602;DHT22;30282;16.436;99.370;2023-04-01T16:43:20;30.00;99.90
12602;DHT22;30282;16.436;99.370;2023-04-01T16:46:12;29.90;99.90
12602;DHT22;30282;16.436;99.370;2023-04-01T16:48:58;29.90;99.90
12602;DHT22;30282;16.436;99.370;2023-04-01T16:51:38;30.00;99.90
12602;DHT22;30282;16.436;99.370;2023-04-01T16:54:17;30.00;99.90
12602;DHT22;30282;16.436;99.370;2023-04-01T16:56:55;30.00;99.90
12602;DHT22;30282;16.436;99.370;2023-04-01T16:59:29;30.10;99.90
12602;DHT22;30282;16.436;99.370;2023-04-01T17:02:07;30.00;99.90
12602;DHT22;30282;16.436;99.370;2023-04-01T17:04:45;29.80;99.90
12602;DHT22;30282;16.436;99.370;2023-04-01T17:07:30;29.80;99.90
12602;DHT22;30282;16.436;99.370;2023-04-01T17:10:32;29.70;99.90
12602;DHT22;30282;16.436;99.370;2023-04-01T17:13:30;29.60;99.90
12602;DHT22;30282;16.436;99.370;2023-04-01T17:19:17;29.80;99.90
12602;DHT22;30282;16.436;99.370;2023-04-01T17:22:01;29.80;99.90
12602;DHT22;30282;16.436;99.370;2023-04-01T17:24:44;29.80;99.90
12602;DHT22;30282;16.436;99.370;2023-04-01T17:27:27;29.70;99.90
12602;DHT22;30282;16.436;99.370;2023-04-01T17:30:25;29.70;99.90
12602;DHT22;30282;16.436;99.370;2023-04-01T17:33:12;29.70;99.90
12602;DHT22;30282;16.436;99.370;2023-04-01T17:35:52;29.80;99.90
12602;DHT22;30282;16.436;99.370;2023-04-01T17:38:40;29.80;99.90
12602;DHT22;30282;16.436;99.370;2023-04-01T17:41:16;29.80;99.90
12602;DHT22;30282;16.436;99.370;2023-04-01T17:43:55;29.80;99.90
12602;DHT22;30282;16.436;99.370;2023-04-01T17:49:30;29.40;99.90
12602;DHT22;30282;16.436;99.370;2023-04-01T17:52:12;29.40;99.90
12602;DHT22;30282;16.436;99.370;2023-04-01T17:54:53;29.40;99.90
12602;DHT22;30282;16.436;99.370;2023-04-01T17:57:43;29.40;99.90
12602;DHT22;30282;16.436;99.370;2023-04-01T18:00:21;29.30;99.90
12602;DHT22;30282;16.436;99.370;2023-04-01T18:03:01;29.20;99.90